createdAt,value
2023-03-22T00:00:17.663Z,9.88
2023-03-22T00:02:44.725Z,9.93
2023-03-22T00:05:11.532Z,10.01
2023-03-22T00:07:38.560Z,10.12
2023-03-22T00:10:06.340Z,9.99
2023-03-22T00:12:33.162Z,9.83
2023-03-22T00:15:00.387Z,9.83
2023-03-22T00:17:27.339Z,9.92
2023-03-22T00:19:58.547Z,9.90
2023-03-22T00:22:25.839Z,9.88
2023-03-22T00:24:52.628Z,9.77
2023-03-22T00:27:19.570Z,9.88
2023-03-22T00:29:46.466Z,9.84
2023-03-22T00:32:13.348Z,9.77
2023-03-22T00:34:40.413Z,9.66
2023-03-22T00:37:08.213Z,9.58
2023-03-22T00:39:35.186Z,9.49
2023-03-22T00:42:05.057Z,9.51
2023-03-22T00:44:32.525Z,9.49
2023-03-22T00:46:59.352Z,9.30
2023-03-22T00:49:27.361Z,9.16
2023-03-22T00:51:54.962Z,9.08
2023-03-22T00:54:21.874Z,9.12
2023-03-22T00:56:50.032Z,9.14
2023-03-22T00:59:17.319Z,9.34
2023-03-22T01:01:44.348Z,9.39
2023-03-22T01:04:15.559Z,9.45
2023-03-22T01:06:42.541Z,9.27
2023-03-22T01:09:15.401Z,9.26
2023-03-22T01:11:43.638Z,9.20
2023-03-22T01:14:14.078Z,9.18
2023-03-22T01:16:41.112Z,9.00
2023-03-22T01:19:08.690Z,8.87
2023-03-22T01:21:35.704Z,8.80
2023-03-22T01:24:02.941Z,8.77
2023-03-22T01:26:29.847Z,8.73
2023-03-22T01:28:57.609Z,8.69
2023-03-22T01:31:24.965Z,8.65
2023-03-22T01:33:51.786Z,8.71
2023-03-22T01:36:20.589Z,8.67
2023-03-22T01:38:47.393Z,8.69
2023-03-22T01:41:17.215Z,8.72
2023-03-22T01:43:44.746Z,8.76
2023-03-22T01:46:12.219Z,8.68
2023-03-22T01:48:46.077Z,8.80
2023-03-22T01:51:24.308Z,8.74
2023-03-22T01:54:18.667Z,8.75
2023-03-22T01:56:47.310Z,8.53
2023-03-22T01:59:22.954Z,8.50
2023-03-22T02:02:08.140Z,8.29
2023-03-22T02:04:39.383Z,8.10
2023-03-22T02:07:15.387Z,7.97
2023-03-22T02:09:44.111Z,7.91
2023-03-22T02:12:50.823Z,7.86
2023-03-22T02:15:43.629Z,7.70
2023-03-22T02:19:00.758Z,7.58
2023-03-22T02:22:03.229Z,7.51
2023-03-22T02:24:32.973Z,7.58
2023-03-22T02:27:18.664Z,7.51
2023-03-22T02:30:09.512Z,7.53
2023-03-22T02:32:36.739Z,7.49
2023-03-22T02:35:39.090Z,7.62
2023-03-22T02:38:17.684Z,7.48
2023-03-22T02:40:44.521Z,7.41
2023-03-22T02:43:16.985Z,7.30
2023-03-22T02:46:01.420Z,7.27
2023-03-22T02:48:35.119Z,7.21
2023-03-22T02:51:18.197Z,7.16
2023-03-22T02:53:54.034Z,7.14
2023-03-22T02:56:36.191Z,7.18
2023-03-22T02:59:06.333Z,7.14
2023-03-22T03:01:51.468Z,7.14
2023-03-22T03:04:24.751Z,7.22
2023-03-22T03:06:54.356Z,7.17
2023-03-22T03:09:21.877Z,7.11
2023-03-22T03:11:52.028Z,7.11
2023-03-22T03:14:27.015Z,7.12
2023-03-22T03:17:06.887Z,7.08
2023-03-22T03:19:46.006Z,7.07
2023-03-22T03:22:47.466Z,7.09
2023-03-22T03:25:27.289Z,7.03
2023-03-22T03:28:11.561Z,6.95
2023-03-22T03:30:48.217Z,6.98
2023-03-22T03:33:18.931Z,7.02
2023-03-22T03:36:01.214Z,6.98
2023-03-22T03:38:32.003Z,6.90
2023-03-22T03:41:10.028Z,6.90
2023-03-22T03:43:37.645Z,6.85
2023-03-22T03:46:05.422Z,6.89
2023-03-22T03:48:36.053Z,6.87
2023-03-22T03:51:03.541Z,6.86
2023-03-22T03:53:31.313Z,6.86
2023-03-22T03:55:58.374Z,6.71
2023-03-22T03:58:30.549Z,6.65
2023-03-22T04:00:57.454Z,6.73
2023-03-22T04:03:50.899Z,6.68
2023-03-22T04:06:40.514Z,6.61
2023-03-22T04:09:14.709Z,6.66
2023-03-22T04:11:45.396Z,6.60
2023-03-22T04:14:13.975Z,6.64
2023-03-22T04:16:40.922Z,6.55
2023-03-22T04:19:11.483Z,6.49
2023-03-22T04:21:39.257Z,6.65
2023-03-22T04:24:07.559Z,6.67
2023-03-22T04:26:37.655Z,6.63
2023-03-22T04:29:32.256Z,6.66
2023-03-22T04:32:12.524Z,6.68
2023-03-22T04:34:43.180Z,6.70
2023-03-22T04:37:13.934Z,6.64
2023-03-22T04:39:54.607Z,6.75
2023-03-22T04:42:51.542Z,6.66
2023-03-22T04:45:29.374Z,6.61
2023-03-22T04:48:00.513Z,6.62
2023-03-22T04:50:28.395Z,6.51
2023-03-22T04:52:59.794Z,6.53
2023-03-22T04:55:27.772Z,6.49
2023-03-22T04:57:54.950Z,6.52
2023-03-22T05:00:24.180Z,6.53
2023-03-22T05:02:52.231Z,6.61
2023-03-22T05:05:53.577Z,6.54
2023-03-22T05:08:27.278Z,6.58
2023-03-22T05:10:55.908Z,6.60
2023-03-22T05:13:26.559Z,6.68
2023-03-22T05:15:54.293Z,6.93
2023-03-22T05:18:28.812Z,7.03
2023-03-22T05:20:57.532Z,7.19
2023-03-22T05:23:25.017Z,7.30
2023-03-22T05:25:58.419Z,7.44
2023-03-22T05:28:39.881Z,7.61
2023-03-22T05:31:28.738Z,7.78
2023-03-22T05:34:01.745Z,7.87
2023-03-22T05:36:30.409Z,7.98
2023-03-22T05:39:16.121Z,8.08
2023-03-22T05:41:44.163Z,8.21
2023-03-22T05:44:11.344Z,8.22
2023-03-22T05:46:44.743Z,8.49
2023-03-22T05:49:32.457Z,8.72
2023-03-22T05:52:04.519Z,8.79
2023-03-22T05:54:45.751Z,8.94
2023-03-22T05:57:12.741Z,9.03
2023-03-22T05:59:39.550Z,9.17
2023-03-22T06:02:09.147Z,9.13
2023-03-22T06:04:37.024Z,9.17
2023-03-22T06:07:10.443Z,9.32
2023-03-22T06:09:51.399Z,9.41
2023-03-22T06:12:24.857Z,9.55
2023-03-22T06:15:18.282Z,9.66
2023-03-22T06:18:21.079Z,9.94
2023-03-22T06:20:56.329Z,10.17
2023-03-22T06:23:24.455Z,10.35
2023-03-22T06:25:52.081Z,10.56
2023-03-22T06:28:19.447Z,10.57
2023-03-22T06:30:51.944Z,10.56
2023-03-22T06:33:38.201Z,10.38
2023-03-22T06:36:16.489Z,10.57
2023-03-22T06:39:05.639Z,10.71
2023-03-22T06:41:33.186Z,11.10
2023-03-22T06:44:01.266Z,11.32
2023-03-22T06:46:40.471Z,11.11
2023-03-22T06:49:17.188Z,11.46
2023-03-22T06:51:44.482Z,11.43
2023-03-22T06:54:13.424Z,11.38
2023-03-22T06:56:41.083Z,11.82
2023-03-22T06:59:08.247Z,11.93
2023-03-22T07:01:35.395Z,11.92
2023-03-22T07:04:02.446Z,11.89
2023-03-22T07:06:30.701Z,11.94
2023-03-22T07:08:57.598Z,12.24
2023-03-22T07:11:29.889Z,12.18
2023-03-22T07:13:59.460Z,12.18
2023-03-22T07:16:32.978Z,12.26
2023-03-22T07:19:02.173Z,12.17
2023-03-22T07:21:29.057Z,12.24
2023-03-22T07:23:59.802Z,12.28
2023-03-22T07:26:30.754Z,12.51
2023-03-22T07:28:59.045Z,12.56
2023-03-22T07:31:35.969Z,12.80
2023-03-22T07:34:05.873Z,12.47
2023-03-22T07:36:44.480Z,12.68
2023-03-22T07:39:12.715Z,12.74
2023-03-22T07:41:44.072Z,12.90
2023-03-22T08:55:08.459Z,15.19
2023-03-22T08:57:50.566Z,15.22
2023-03-22T09:00:20.598Z,15.02
2023-03-22T09:03:01.275Z,15.04
2023-03-22T09:05:28.219Z,14.69
2023-03-22T09:07:56.611Z,14.89
2023-03-22T09:10:33.460Z,15.38
2023-03-22T09:13:00.736Z,15.33
2023-03-22T09:15:27.696Z,15.32
2023-03-22T09:18:12.480Z,15.36
2023-03-22T09:20:40.548Z,15.67
2023-03-22T09:23:08.322Z,15.81
2023-03-22T09:25:35.507Z,15.95
2023-03-22T09:28:04.241Z,16.28
2023-03-22T09:30:31.306Z,16.42
2023-03-22T09:32:58.303Z,16.25
2023-03-22T09:35:25.201Z,16.39
2023-03-22T09:38:00.017Z,16.65
2023-03-22T09:40:31.966Z,16.57
2023-03-22T09:43:03.231Z,16.58
2023-03-22T09:45:38.748Z,16.63
2023-03-22T09:48:21.890Z,16.30
2023-03-22T09:50:52.939Z,16.36
2023-03-22T09:53:21.353Z,16.29
2023-03-22T09:55:54.600Z,16.37
2023-03-22T09:58:43.146Z,17.03
2023-03-22T10:01:35.522Z,16.87
2023-03-22T10:04:14.687Z,17.19
2023-03-22T10:06:49.669Z,17.55
2023-03-22T10:09:42.516Z,17.80
2023-03-22T10:12:34.988Z,17.90
2023-03-22T10:15:12.382Z,17.86
2023-03-22T10:17:42.296Z,17.85
2023-03-22T10:20:33.354Z,17.19
2023-03-22T10:23:03.489Z,17.77
2023-03-22T10:25:39.750Z,17.53
2023-03-22T10:28:39.832Z,17.76
2023-03-22T10:31:13.289Z,18.00
2023-03-22T10:33:50.582Z,18.40
2023-03-22T10:36:21.277Z,18.07
2023-03-22T10:38:55.775Z,17.65
2023-03-22T10:41:25.947Z,17.82
2023-03-22T10:43:56.775Z,17.81
2023-03-22T10:46:26.627Z,18.03
2023-03-22T10:48:59.675Z,17.56
2023-03-22T10:51:44.976Z,17.53
2023-03-22T10:54:17.990Z,17.99
2023-03-22T10:56:46.180Z,18.00
2023-03-22T10:59:49.170Z,18.26
2023-03-22T11:02:22.392Z,18.47
2023-03-22T11:04:53.124Z,17.92
2023-03-22T11:07:45.909Z,18.00
2023-03-22T11:10:18.952Z,18.18
2023-03-22T11:12:55.482Z,18.24
2023-03-22T11:15:34.768Z,18.32
2023-03-22T11:18:16.049Z,18.41
2023-03-22T11:20:57.262Z,18.33
2023-03-22T11:23:25.132Z,18.48
2023-03-22T11:25:55.793Z,18.29
2023-03-22T11:28:28.020Z,18.27
2023-03-22T11:31:03.095Z,18.44
2023-03-22T11:33:30.777Z,18.55
2023-03-22T11:36:03.687Z,18.62
2023-03-22T11:38:36.757Z,18.62
2023-03-22T11:41:21.171Z,18.56
2023-03-22T11:43:53.915Z,18.62
2023-03-22T11:46:21.863Z,18.84
2023-03-22T11:48:51.992Z,18.81
2023-03-22T11:51:35.329Z,18.77
2023-03-22T11:54:20.929Z,18.72
2023-03-22T11:56:49.383Z,18.74
2023-03-22T11:59:21.464Z,18.65
2023-03-22T12:01:58.789Z,18.65
2023-03-22T12:04:29.822Z,18.78
2023-03-22T12:07:00.673Z,18.93
2023-03-22T12:10:11.218Z,19.11
2023-03-22T12:12:49.607Z,19.00
2023-03-22T12:15:22.518Z,19.23
2023-03-22T12:18:04.929Z,19.18
2023-03-22T12:20:50.719Z,19.33
2023-03-22T12:23:28.138Z,19.23
2023-03-22T12:26:05.223Z,19.18
2023-03-22T12:28:42.734Z,19.25
2023-03-22T12:31:21.947Z,19.35
2023-03-22T12:33:52.769Z,19.15
2023-03-22T12:36:38.303Z,18.90
2023-03-22T12:39:08.392Z,18.88
2023-03-22T12:41:42.702Z,19.13
2023-03-22T12:44:12.709Z,19.28
2023-03-22T12:46:51.543Z,19.23
2023-03-22T12:49:21.835Z,19.36
2023-03-22T12:51:51.753Z,19.56
2023-03-22T12:54:22.373Z,19.69
2023-03-22T12:56:51.370Z,19.59
2023-03-22T12:59:23.730Z,19.77
2023-03-22T13:02:01.308Z,19.51
2023-03-22T13:04:49.727Z,19.68
2023-03-22T13:07:31.687Z,19.79
2023-03-22T13:10:00.192Z,19.59
2023-03-22T13:12:30.815Z,19.64
2023-03-22T13:15:28.419Z,19.78
2023-03-22T13:17:59.202Z,19.82
2023-03-22T13:20:28.371Z,19.84
2023-03-22T13:22:57.487Z,19.89
2023-03-22T13:25:38.682Z,19.94
2023-03-22T13:28:23.582Z,19.87
2023-03-22T13:30:53.667Z,20.03
2023-03-22T13:33:27.270Z,20.08
2023-03-22T13:35:56.943Z,20.01
2023-03-22T13:38:26.060Z,20.10
2023-03-22T13:41:08.029Z,20.28
2023-03-22T13:43:43.496Z,20.39
2023-03-22T13:46:13.299Z,20.52
2023-03-22T13:48:55.419Z,20.39
2023-03-22T13:51:25.782Z,20.49
2023-03-22T13:53:52.540Z,20.69
2023-03-22T13:56:34.025Z,20.43
2023-03-22T13:59:03.953Z,20.42
2023-03-22T14:01:36.988Z,20.27
2023-03-22T14:04:10.829Z,20.32
2023-03-22T14:06:52.644Z,20.44
2023-03-22T14:09:31.894Z,20.49
2023-03-22T14:12:20.859Z,20.59
2023-03-22T14:14:54.948Z,20.64
2023-03-22T14:17:47.729Z,20.89
2023-03-22T14:20:21.151Z,20.64
2023-03-22T14:53:16.786Z,20.55
2023-03-22T14:55:45.629Z,20.54
2023-03-22T14:58:15.849Z,20.67
2023-03-22T15:00:42.997Z,20.62
2023-03-22T15:03:20.409Z,20.49
2023-03-22T15:05:47.576Z,20.66
2023-03-22T15:08:20.177Z,20.57
2023-03-22T15:10:58.980Z,20.65
2023-03-22T15:13:27.031Z,20.45
2023-03-22T15:15:54.669Z,20.43
2023-03-22T15:18:24.894Z,20.65
2023-03-22T15:20:53.210Z,20.77
2023-03-22T15:23:31.756Z,20.66
2023-03-22T15:26:01.078Z,20.63
2023-03-22T15:28:31.577Z,20.58
2023-03-22T15:31:04.134Z,20.53
2023-03-22T15:33:37.633Z,20.52
2023-03-22T15:36:06.762Z,20.51
2023-03-22T15:38:46.668Z,20.47
2023-03-22T15:41:26.432Z,20.59
2023-03-22T15:44:04.819Z,20.55
2023-03-22T15:46:48.500Z,20.36
2023-03-22T15:49:19.584Z,20.33
2023-03-22T15:51:47.245Z,20.23
2023-03-22T15:54:19.913Z,20.37
2023-03-22T15:56:49.735Z,20.20
2023-03-22T15:59:31.732Z,20.12
2023-03-22T16:02:00.747Z,20.05
2023-03-22T16:04:34.753Z,19.83
2023-03-22T16:07:02.213Z,19.81
2023-03-22T16:09:29.140Z,19.77
2023-03-22T16:11:56.180Z,19.65
2023-03-22T16:14:23.203Z,19.68
2023-03-22T16:16:50.228Z,19.74
2023-03-22T16:19:17.358Z,19.63
2023-03-22T16:21:44.370Z,19.63
2023-03-22T16:24:12.831Z,19.59
2023-03-22T16:26:40.182Z,19.40
2023-03-22T16:29:07.134Z,19.40
2023-03-22T16:31:34.110Z,19.32
2023-03-22T16:34:01.092Z,19.23
2023-03-22T16:36:28.332Z,19.20
2023-03-22T16:38:55.440Z,19.26
2023-03-22T16:41:29.430Z,19.65
2023-03-22T16:43:58.851Z,19.75
2023-03-22T16:46:28.509Z,19.59
2023-03-22T16:48:55.553Z,19.28
2023-03-22T16:51:30.802Z,19.00
2023-03-22T16:53:58.999Z,18.80
2023-03-22T16:56:30.802Z,18.76
2023-03-22T16:58:57.792Z,18.65
2023-03-22T17:01:26.093Z,18.48
2023-03-22T17:03:53.452Z,18.40
2023-03-22T17:06:24.077Z,18.34
2023-03-22T17:08:55.333Z,18.24
2023-03-22T17:11:29.755Z,18.11
2023-03-22T17:13:59.066Z,17.91
2023-03-22T17:16:27.790Z,17.81
2023-03-22T17:18:57.248Z,17.68
2023-03-22T17:21:24.343Z,17.62
2023-03-22T17:23:51.619Z,17.63
2023-03-22T17:26:18.766Z,17.56
2023-03-22T17:28:48.064Z,17.49
2023-03-22T17:31:17.543Z,17.54
2023-03-22T17:33:45.295Z,17.44
2023-03-22T17:36:13.509Z,17.34
2023-03-22T17:38:53.277Z,17.29
2023-03-22T17:41:27.842Z,17.27
2023-03-22T17:43:54.711Z,17.22
2023-03-22T17:48:51.581Z,17.17
2023-03-22T17:51:18.484Z,17.16
2023-03-22T17:54:35.497Z,16.99
2023-03-22T17:57:01.054Z,17.10
2023-03-22T17:59:38.134Z,17.17
2023-03-22T18:02:50.931Z,17.08
2023-03-22T18:05:28.149Z,17.05
2023-03-22T18:08:27.266Z,16.99
2023-03-22T18:10:56.256Z,16.94
2023-03-22T18:13:28.140Z,16.98
2023-03-22T18:16:03.389Z,17.01
2023-03-22T18:18:34.158Z,16.81
2023-03-22T18:21:42.444Z,16.73
2023-03-22T18:24:25.133Z,16.66
2023-03-22T18:30:12.341Z,16.53
2023-03-22T18:33:03.830Z,16.42
2023-03-22T18:35:54.150Z,16.31
2023-03-22T18:39:02.984Z,16.34
2023-03-22T18:41:46.218Z,16.40
2023-03-22T18:44:26.470Z,16.31
2023-03-22T18:47:09.356Z,16.17
2023-03-22T18:49:58.625Z,16.08
2023-03-22T18:53:17.873Z,16.13
2023-03-22T18:55:52.241Z,15.94
2023-03-22T18:58:39.307Z,16.11
2023-03-22T19:01:13.063Z,16.22
2023-03-22T19:03:46.042Z,16.19
2023-03-22T19:07:01.053Z,16.12
2023-03-22T19:09:45.777Z,16.04
2023-03-22T19:12:28.522Z,16.10
2023-03-22T19:15:31.822Z,16.01
2023-03-22T19:18:32.293Z,15.93
2023-03-22T19:24:10.230Z,15.64
2023-03-22T19:26:58.488Z,15.73
2023-03-22T19:29:37.208Z,15.67
2023-03-22T19:32:04.721Z,15.74
2023-03-22T19:34:50.358Z,15.85
2023-03-22T19:37:21.340Z,15.78
2023-03-22T19:42:44.551Z,15.65
2023-03-22T19:45:26.367Z,15.44
2023-03-22T19:48:05.379Z,15.30
2023-03-22T19:50:39.079Z,15.48
2023-03-22T19:54:08.458Z,15.50
2023-03-22T19:56:18.730Z,15.33
2023-03-22T19:59:03.352Z,15.56
2023-03-22T20:01:40.222Z,15.65
2023-03-22T20:04:07.226Z,15.66
2023-03-22T20:06:55.312Z,15.77
2023-03-22T20:10:02.153Z,15.55
2023-03-22T20:12:38.917Z,15.47
2023-03-22T20:15:37.614Z,15.40
2023-03-22T20:18:09.705Z,15.38
2023-03-22T20:20:36.620Z,15.32
2023-03-22T20:23:22.284Z,15.54
2023-03-22T20:26:09.701Z,15.48
2023-03-22T20:29:02.758Z,15.38
2023-03-22T20:31:59.976Z,15.17
2023-03-22T20:35:04.697Z,15.21
2023-03-22T20:37:38.728Z,15.14
2023-03-22T20:40:12.290Z,15.05
2023-03-22T20:43:35.725Z,15.03
2023-03-22T20:46:57.255Z,14.98
2023-03-22T20:49:27.356Z,14.77
2023-03-22T20:52:03.707Z,14.67
2023-03-22T20:54:30.789Z,14.68
2023-03-22T20:56:57.899Z,14.73
2023-03-22T20:59:24.854Z,14.82
2023-03-22T21:01:53.567Z,14.66
2023-03-22T21:04:20.962Z,14.57
2023-03-22T21:06:49.120Z,14.39
2023-03-22T21:09:16.667Z,14.33
2023-03-22T21:11:43.834Z,14.33
2023-03-22T21:14:11.248Z,14.32
2023-03-22T21:16:44.063Z,14.33
2023-03-22T21:19:12.034Z,14.25
2023-03-22T21:21:40.075Z,14.14
2023-03-22T21:24:07.437Z,14.02
2023-03-22T21:26:34.492Z,13.94
2023-03-22T21:29:01.622Z,13.94
2023-03-22T21:31:28.708Z,14.00
2023-03-22T21:33:55.709Z,14.16
2023-03-22T21:36:22.640Z,14.17
2023-03-22T21:38:54.925Z,14.01
2023-03-22T21:41:24.477Z,13.72
2023-03-22T21:43:55.395Z,13.74
2023-03-22T21:46:24.218Z,13.53
2023-03-22T21:48:54.294Z,13.64
2023-03-22T21:51:28.513Z,13.83
2023-03-22T21:53:56.864Z,13.67
2023-03-22T21:56:24.788Z,13.42
2023-03-22T21:58:52.330Z,13.28
2023-03-22T22:01:19.984Z,13.06
2023-03-22T22:03:48.551Z,13.01
2023-03-22T22:06:15.681Z,13.02
2023-03-22T22:08:42.636Z,12.96
2023-03-22T22:11:10.149Z,12.79
2023-03-22T22:13:38.456Z,12.73
2023-03-22T22:16:08.352Z,12.84
2023-03-22T22:18:39.232Z,12.84
2023-03-22T22:21:09.289Z,12.74
2023-03-22T22:23:41.929Z,12.76
2023-03-22T22:26:10.323Z,12.91
2023-03-22T22:28:38.599Z,12.91
2023-03-22T22:31:10.266Z,12.95
2023-03-22T22:33:39.979Z,12.86
2023-03-22T22:36:10.491Z,12.78
2023-03-22T22:38:38.884Z,12.65
2023-03-22T22:41:11.641Z,12.42
2023-03-22T22:43:38.837Z,12.37
2023-03-22T22:46:06.304Z,12.24
2023-03-22T22:48:34.121Z,12.11
2023-03-22T22:51:06.582Z,12.23
2023-03-22T22:53:34.339Z,12.33
2023-03-22T22:56:02.263Z,12.29
2023-03-22T22:58:29.578Z,12.10
2023-03-22T23:00:56.724Z,11.91
2023-03-22T23:03:26.542Z,11.93
2023-03-22T23:05:53.682Z,11.94
2023-03-22T23:08:20.719Z,12.00
2023-03-22T23:10:52.624Z,12.05
2023-03-22T23:13:20.692Z,11.88
2023-03-22T23:15:52.943Z,11.77
2023-03-22T23:18:22.880Z,11.62
2023-03-22T23:20:50.726Z,11.54
2023-03-22T23:23:20.597Z,11.41
2023-03-22T23:25:48.419Z,11.35
2023-03-22T23:28:17.627Z,11.32
2023-03-22T23:30:44.572Z,11.29
2023-03-22T23:33:12.765Z,11.31
2023-03-22T23:35:43.003Z,11.29
2023-03-22T23:38:10.860Z,11.23
2023-03-22T23:40:38.155Z,11.15
2023-03-22T23:43:05.097Z,11.10
2023-03-22T23:45:32.273Z,11.04
2023-03-22T23:47:59.302Z,11.02
2023-03-22T23:50:26.199Z,10.95
2023-03-22T23:52:53.081Z,11.04
2023-03-22T23:55:22.226Z,10.93
2023-03-22T23:57:49.124Z,10.86
